< Typhoon 201824 2018 Season Typhoon 201826 >
Typhoon 201825 (KONG-REY)
General InformationTrack Information on Google MapsDetailed Wind InformationForecast History on Google MapsAccess Analytics MapList of All Images || NewsDisaster Info.WeblogTrackbackTyphoon FrontTwiphoonTyphoon Now!Typhoon ImaginationJMA Disaster Info. XMLResourceGoogle EarthGE AnimationAtom FeedGeoJSON
Detalied Best Track (Time Zone = UTC)
Year Month Day Hour Lat. Long. Pressure (hPa) Wind (kt) Class Image Chart
2018 9 28 00 7.4 150.9 1006 0 2 Image Chart
2018 9 28 06 8.5 149.5 1004 0 2 Image Chart
2018 9 28 12 9.6 148.0 1004 0 2 Image Chart
2018 9 28 18 11.0 146.5 1002 0 2 Image Chart
2018 9 29 00 12.0 144.2 1004 0 2 Image Chart
2018 9 29 06 12.6 142.6 1000 35 3 Image Chart
2018 9 29 12 12.8 141.4 996 40 3 Image Chart
2018 9 29 18 13.1 139.9 990 50 4 Image Chart
2018 9 30 00 13.7 138.9 980 60 4 Image Chart
2018 9 30 06 14.5 138.1 975 65 5 Image Chart
2018 9 30 12 14.9 137.2 965 75 5 Image Chart
2018 9 30 18 15.4 136.4 950 85 5 Image Chart
2018 10 1 00 15.6 135.9 940 90 5 Image Chart
2018 10 1 06 16.1 135.2 925 100 5 Image Chart
2018 10 1 12 16.8 134.4 900 115 5 Image Chart
2018 10 1 18 17.3 133.6 900 115 5 Image Chart
2018 10 2 00 17.7 132.7 900 115 5 Image Chart
2018 10 2 06 18.2 132.0 900 115 5 Image Chart
2018 10 2 12 18.9 131.2 915 105 5 Image Chart
2018 10 2 18 19.5 130.4 940 90 5 Image Chart
2018 10 3 00 20.1 129.7 950 85 5 Image Chart
2018 10 3 06 20.9 129.2 955 80 5 Image Chart
2018 10 3 12 21.6 128.8 970 70 5 Image Chart
2018 10 3 18 22.5 128.1 975 65 5 Image Chart
2018 10 4 00 23.2 127.7 975 65 5 Image Chart
2018 10 4 03 23.8 127.4 975 65 5 Image Chart
2018 10 4 06 24.3 127.1 975 60 4 Image Chart
2018 10 4 09 24.9 126.9 975 60 4 Image Chart
2018 10 4 12 25.4 126.7 975 60 4 Image Chart
2018 10 4 15 26.2 126.4 975 60 4 Image Chart
2018 10 4 18 26.7 126.1 975 60 4 Image Chart
2018 10 4 21 27.5 125.9 975 60 4 Image Chart
2018 10 5 00 28.0 125.9 975 60 4 Image Chart
2018 10 5 03 28.7 125.9 975 60 4 Image Chart
2018 10 5 06 29.5 125.9 975 65 5 Image Chart
2018 10 5 09 30.5 126.1 975 65 5 Image Chart
2018 10 5 12 31.3 126.0 975 65 5 Image Chart
2018 10 5 15 32.2 126.1 975 65 5 Image Chart
2018 10 5 18 32.9 126.5 975 65 5 Image Chart
2018 10 5 21 33.7 127.3 975 65 5 Image Chart
2018 10 6 00 34.7 128.1 975 60 4 Image Chart
2018 10 6 03 35.8 129.1 980 55 4 Image Chart
2018 10 6 06 37.1 130.4 980 55 4 Image Chart
2018 10 6 09 37.9 131.7 980 55 4 Image Chart
2018 10 6 12 38.9 133.7 984 0 6 Image Chart
2018 10 6 18 41.0 137.2 988 0 6 Image Chart
2018 10 7 00 42.0 141.0 994 0 6 Image Chart
2018 10 7 06 42.3 147.2 994 0 6 Image Chart
2018 10 7 12 41.2 152.0 996 0 6 Image Chart
Japan Meteorological Agency Best Track Data | Correction Date : 2018-12-04
< Typhoon 201824 2018 Season Typhoon 201826 >

Help